CheckWX is a tool to help pilots better visualize weather data.  It is not intended as a substitute for an official pre-flight weather briefing.

13:26:05 UTC

NSTU TAF
Pago Pago International Airport
Pago Pago, American Samoa
NSTU 181123Z 1812/1912 VRB05KT P6SM VCSH SCT015 BKN040 BKN100 TEMPO 1812/1814 5SM SHRA BR BKN015

Aug-18@
12:00 UTC

Aug-18 @ 12:00 UTC

Aug-19@
12:00 UTC

Aug-19 @ 12:00 UTC

NSTU 181123Z 1812/1912 VRB05KT P6SM VCSH SCT015 BKN040 BKN100
Wind
  • Variable at 5 KTS
Cloud Levels
  • Scattered at 1,500' AGL
  • Broken at 4,000' AGL
  • Broken at 10,000' AGL

Aug-18@
12:00 UTC

Aug-18 @ 12:00 UTC

Aug-18@
14:00 UTC

Aug-18 @ 14:00 UTC

TEMPO 1812/1814 5SM SHRA BR BKN015

Temporary

Temporary Changes expected for less than half the time period

Conditions
Rain, Mist
Cloud Levels
  • Broken at 1,500' AGL